sensor_id;sensor_type;location;lat;lon;timestamp;P1;durP1;ratioP1;P2;durP2;ratioP2
69534;SDS011;56754;51.568;5.048;2023-04-16T00:02:13;4.07;;;0.60;;
69534;SDS011;56754;51.568;5.048;2023-04-16T00:04:39;5.32;;;0.70;;
69534;SDS011;56754;51.568;5.048;2023-04-16T00:07:04;4.03;;;0.60;;
69534;SDS011;56754;51.568;5.048;2023-04-16T00:09:29;5.90;;;0.83;;
69534;SDS011;56754;51.568;5.048;2023-04-16T00:11:55;3.73;;;0.70;;
69534;SDS011;56754;51.568;5.048;2023-04-16T00:14:20;5.25;;;0.70;;
69534;SDS011;56754;51.568;5.048;2023-04-16T00:16:45;6.30;;;1.03;;
69534;SDS011;56754;51.568;5.048;2023-04-16T00:19:11;3.83;;;0.73;;
69534;SDS011;56754;51.568;5.048;2023-04-16T00:21:36;4.97;;;0.60;;
69534;SDS011;56754;51.568;5.048;2023-04-16T00:24:02;5.60;;;0.80;;
69534;SDS011;56754;51.568;5.048;2023-04-16T00:26:27;6.30;;;0.70;;
69534;SDS011;56754;51.568;5.048;2023-04-16T00:28:52;3.70;;;0.70;;
69534;SDS011;56754;51.568;5.048;2023-04-16T00:31:24;4.13;;;0.70;;
69534;SDS011;56754;51.568;5.048;2023-04-16T00:33:51;5.20;;;0.82;;
69534;SDS011;56754;51.568;5.048;2023-04-16T00:36:17;4.88;;;0.90;;
69534;SDS011;56754;51.568;5.048;2023-04-16T00:38:42;4.20;;;0.90;;
69534;SDS011;56754;51.568;5.048;2023-04-16T00:41:07;4.50;;;0.80;;
69534;SDS011;56754;51.568;5.048;2023-04-16T00:43:33;5.13;;;0.70;;
69534;SDS011;56754;51.568;5.048;2023-04-16T00:45:58;4.60;;;0.80;;
69534;SDS011;56754;51.568;5.048;2023-04-16T00:48:23;4.80;;;0.73;;
69534;SDS011;56754;51.568;5.048;2023-04-16T00:50:49;5.47;;;1.00;;
69534;SDS011;56754;51.568;5.048;2023-04-16T00:53:14;4.40;;;0.90;;
69534;SDS011;56754;51.568;5.048;2023-04-16T00:55:40;3.37;;;0.70;;
69534;SDS011;56754;51.568;5.048;2023-04-16T00:58:05;3.83;;;1.00;;
69534;SDS011;56754;51.568;5.048;2023-04-16T01:00:30;5.67;;;0.87;;
69534;SDS011;56754;51.568;5.048;2023-04-16T01:02:56;4.57;;;1.00;;
69534;SDS011;56754;51.568;5.048;2023-04-16T01:05:23;6.60;;;1.00;;
69534;SDS011;56754;51.568;5.048;2023-04-16T01:07:49;4.87;;;1.00;;
69534;SDS011;56754;51.568;5.048;2023-04-16T01:10:15;5.05;;;0.80;;
69534;SDS011;56754;51.568;5.048;2023-04-16T01:12:40;5.30;;;0.80;;
69534;SDS011;56754;51.568;5.048;2023-04-16T01:15:06;7.65;;;1.10;;
69534;SDS011;56754;51.568;5.048;2023-04-16T01:17:32;2.83;;;0.70;;
69534;SDS011;56754;51.568;5.048;2023-04-16T01:19:58;3.77;;;0.90;;
69534;SDS011;56754;51.568;5.048;2023-04-16T01:22:24;5.50;;;1.17;;
69534;SDS011;56754;51.568;5.048;2023-04-16T01:24:49;4.50;;;0.98;;
69534;SDS011;56754;51.568;5.048;2023-04-16T01:27:15;3.33;;;0.90;;
69534;SDS011;56754;51.568;5.048;2023-04-16T01:29:40;3.70;;;0.90;;
69534;SDS011;56754;51.568;5.048;2023-04-16T01:32:05;5.33;;;1.07;;
69534;SDS011;56754;51.568;5.048;2023-04-16T01:34:31;3.50;;;0.90;;
69534;SDS011;56754;51.568;5.048;2023-04-16T01:36:56;2.70;;;0.70;;
69534;SDS011;56754;51.568;5.048;2023-04-16T01:39:21;4.07;;;0.90;;
69534;SDS011;56754;51.568;5.048;2023-04-16T01:41:47;7.50;;;0.97;;
69534;SDS011;56754;51.568;5.048;2023-04-16T01:44:12;3.53;;;0.77;;
69534;SDS011;56754;51.568;5.048;2023-04-16T01:46:37;3.47;;;0.80;;
69534;SDS011;56754;51.568;5.048;2023-04-16T01:49:03;5.50;;;1.13;;
69534;SDS011;56754;51.568;5.048;2023-04-16T01:51:29;5.90;;;1.02;;
69534;SDS011;56754;51.568;5.048;2023-04-16T01:53:54;5.13;;;0.80;;
69534;SDS011;56754;51.568;5.048;2023-04-16T01:56:20;3.70;;;0.87;;
69534;SDS011;56754;51.568;5.048;2023-04-16T01:58:45;6.82;;;1.00;;
69534;SDS011;56754;51.568;5.048;2023-04-16T02:01:10;5.63;;;1.03;;
69534;SDS011;56754;51.568;5.048;2023-04-16T02:03:36;3.35;;;0.80;;
69534;SDS011;56754;51.568;5.048;2023-04-16T02:06:02;4.27;;;0.90;;
69534;SDS011;56754;51.568;5.048;2023-04-16T02:08:27;4.37;;;0.90;;
69534;SDS011;56754;51.568;5.048;2023-04-16T02:10:53;5.47;;;0.90;;
69534;SDS011;56754;51.568;5.048;2023-04-16T02:13:19;3.75;;;1.10;;
69534;SDS011;56754;51.568;5.048;2023-04-16T02:15:45;5.23;;;1.10;;
69534;SDS011;56754;51.568;5.048;2023-04-16T02:18:11;5.45;;;1.23;;
69534;SDS011;56754;51.568;5.048;2023-04-16T02:20:38;5.87;;;1.30;;
69534;SDS011;56754;51.568;5.048;2023-04-16T02:23:05;5.05;;;1.00;;
69534;SDS011;56754;51.568;5.048;2023-04-16T02:25:30;4.23;;;1.20;;
69534;SDS011;56754;51.568;5.048;2023-04-16T02:27:55;5.30;;;1.00;;
69534;SDS011;56754;51.568;5.048;2023-04-16T02:30:21;7.00;;;1.43;;
69534;SDS011;56754;51.568;5.048;2023-04-16T02:32:46;6.13;;;1.50;;
69534;SDS011;56754;51.568;5.048;2023-04-16T02:35:11;5.63;;;1.47;;
69534;SDS011;56754;51.568;5.048;2023-04-16T02:37:37;5.67;;;1.40;;
69534;SDS011;56754;51.568;5.048;2023-04-16T02:40:02;5.13;;;1.37;;
69534;SDS011;56754;51.568;5.048;2023-04-16T02:42:27;6.10;;;1.40;;
69534;SDS011;56754;51.568;5.048;2023-04-16T02:44:53;8.83;;;1.30;;
69534;SDS011;56754;51.568;5.048;2023-04-16T02:47:18;4.60;;;1.17;;
69534;SDS011;56754;51.568;5.048;2023-04-16T02:49:44;5.30;;;1.30;;
69534;SDS011;56754;51.568;5.048;2023-04-16T02:52:09;5.83;;;1.57;;
69534;SDS011;56754;51.568;5.048;2023-04-16T02:54:34;5.97;;;1.20;;
69534;SDS011;56754;51.568;5.048;2023-04-16T02:57:00;6.05;;;1.50;;
69534;SDS011;56754;51.568;5.048;2023-04-16T02:59:25;8.70;;;1.60;;
69534;SDS011;56754;51.568;5.048;2023-04-16T03:01:50;4.10;;;1.30;;
69534;SDS011;56754;51.568;5.048;2023-04-16T03:04:15;7.27;;;1.47;;
69534;SDS011;56754;51.568;5.048;2023-04-16T03:06:41;8.10;;;1.57;;
69534;SDS011;56754;51.568;5.048;2023-04-16T03:09:06;5.03;;;1.67;;
69534;SDS011;56754;51.568;5.048;2023-04-16T03:11:31;5.57;;;1.70;;
69534;SDS011;56754;51.568;5.048;2023-04-16T03:13:56;7.07;;;1.58;;
69534;SDS011;56754;51.568;5.048;2023-04-16T03:16:22;7.77;;;1.40;;
69534;SDS011;56754;51.568;5.048;2023-04-16T03:18:47;5.57;;;1.57;;
69534;SDS011;56754;51.568;5.048;2023-04-16T03:21:13;5.07;;;1.67;;
69534;SDS011;56754;51.568;5.048;2023-04-16T03:23:38;5.97;;;1.70;;
69534;SDS011;56754;51.568;5.048;2023-04-16T03:26:03;7.33;;;2.30;;
69534;SDS011;56754;51.568;5.048;2023-04-16T03:28:29;4.63;;;1.60;;
69534;SDS011;56754;51.568;5.048;2023-04-16T03:30:54;6.30;;;2.00;;
69534;SDS011;56754;51.568;5.048;2023-04-16T03:33:20;5.63;;;1.70;;
69534;SDS011;56754;51.568;5.048;2023-04-16T03:35:45;8.73;;;1.80;;
69534;SDS011;56754;51.568;5.048;2023-04-16T03:38:10;7.50;;;2.00;;
69534;SDS011;56754;51.568;5.048;2023-04-16T03:40:36;6.73;;;2.17;;
69534;SDS011;56754;51.568;5.048;2023-04-16T03:43:01;6.90;;;2.30;;
69534;SDS011;56754;51.568;5.048;2023-04-16T03:45:26;7.73;;;2.17;;
69534;SDS011;56754;51.568;5.048;2023-04-16T03:47:52;6.67;;;2.33;;
69534;SDS011;56754;51.568;5.048;2023-04-16T03:50:17;6.27;;;2.50;;
69534;SDS011;56754;51.568;5.048;2023-04-16T03:52:43;6.55;;;2.30;;
69534;SDS011;56754;51.568;5.048;2023-04-16T03:55:08;7.17;;;2.20;;
69534;SDS011;56754;51.568;5.048;2023-04-16T03:57:34;6.03;;;2.42;;
69534;SDS011;56754;51.568;5.048;2023-04-16T03:59:59;6.53;;;2.50;;
69534;SDS011;56754;51.568;5.048;2023-04-16T04:02:24;9.77;;;2.70;;
69534;SDS011;56754;51.568;5.048;2023-04-16T04:04:50;7.50;;;2.50;;
69534;SDS011;56754;51.568;5.048;2023-04-16T04:07:15;7.23;;;2.40;;
69534;SDS011;56754;51.568;5.048;2023-04-16T04:09:40;8.50;;;2.77;;
69534;SDS011;56754;51.568;5.048;2023-04-16T04:12:06;8.07;;;2.67;;
69534;SDS011;56754;51.568;5.048;2023-04-16T04:14:31;8.30;;;2.73;;
69534;SDS011;56754;51.568;5.048;2023-04-16T04:16:56;8.87;;;2.63;;
69534;SDS011;56754;51.568;5.048;2023-04-16T04:19:22;9.93;;;2.73;;
69534;SDS011;56754;51.568;5.048;2023-04-16T04:21:47;9.43;;;2.70;;
69534;SDS011;56754;51.568;5.048;2023-04-16T04:24:12;7.07;;;2.60;;
69534;SDS011;56754;51.568;5.048;2023-04-16T04:26:37;9.15;;;2.50;;
69534;SDS011;56754;51.568;5.048;2023-04-16T04:29:03;7.87;;;2.37;;
69534;SDS011;56754;51.568;5.048;2023-04-16T04:31:28;9.27;;;2.67;;
69534;SDS011;56754;51.568;5.048;2023-04-16T04:33:53;7.07;;;2.40;;
69534;SDS011;56754;51.568;5.048;2023-04-16T04:36:19;9.40;;;2.83;;
69534;SDS011;56754;51.568;5.048;2023-04-16T04:38:44;5.37;;;2.13;;
69534;SDS011;56754;51.568;5.048;2023-04-16T04:41:09;8.77;;;2.40;;
69534;SDS011;56754;51.568;5.048;2023-04-16T04:43:35;9.82;;;3.03;;
69534;SDS011;56754;51.568;5.048;2023-04-16T04:46:00;10.27;;;2.60;;
69534;SDS011;56754;51.568;5.048;2023-04-16T04:48:25;7.53;;;2.20;;
69534;SDS011;56754;51.568;5.048;2023-04-16T04:50:50;7.47;;;2.00;;
69534;SDS011;56754;51.568;5.048;2023-04-16T04:53:16;8.30;;;2.43;;
69534;SDS011;56754;51.568;5.048;2023-04-16T04:55:41;8.07;;;2.30;;
69534;SDS011;56754;51.568;5.048;2023-04-16T04:58:07;7.63;;;2.40;;
69534;SDS011;56754;51.568;5.048;2023-04-16T05:00:32;8.30;;;2.50;;
69534;SDS011;56754;51.568;5.048;2023-04-16T05:03:00;7.57;;;2.17;;
69534;SDS011;56754;51.568;5.048;2023-04-16T05:05:26;8.93;;;2.70;;
69534;SDS011;56754;51.568;5.048;2023-04-16T05:07:52;7.23;;;2.67;;
69534;SDS011;56754;51.568;5.048;2023-04-16T05:10:17;8.47;;;2.60;;
69534;SDS011;56754;51.568;5.048;2023-04-16T05:12:42;6.18;;;1.90;;
69534;SDS011;56754;51.568;5.048;2023-04-16T05:15:08;7.13;;;2.10;;
69534;SDS011;56754;51.568;5.048;2023-04-16T05:17:33;7.87;;;2.67;;
69534;SDS011;56754;51.568;5.048;2023-04-16T05:19:59;8.77;;;2.13;;
69534;SDS011;56754;51.568;5.048;2023-04-16T05:22:24;7.53;;;2.50;;
69534;SDS011;56754;51.568;5.048;2023-04-16T05:24:49;7.03;;;2.23;;
69534;SDS011;56754;51.568;5.048;2023-04-16T05:27:15;7.27;;;2.00;;
69534;SDS011;56754;51.568;5.048;2023-04-16T05:29:40;7.17;;;2.00;;
69534;SDS011;56754;51.568;5.048;2023-04-16T05:32:05;9.43;;;2.53;;
69534;SDS011;56754;51.568;5.048;2023-04-16T05:34:31;5.90;;;2.10;;
69534;SDS011;56754;51.568;5.048;2023-04-16T05:36:56;7.53;;;2.23;;
69534;SDS011;56754;51.568;5.048;2023-04-16T05:39:21;7.82;;;2.05;;
69534;SDS011;56754;51.568;5.048;2023-04-16T05:41:46;7.43;;;2.20;;
69534;SDS011;56754;51.568;5.048;2023-04-16T05:44:12;7.00;;;2.27;;
69534;SDS011;56754;51.568;5.048;2023-04-16T05:46:37;7.20;;;2.10;;
69534;SDS011;56754;51.568;5.048;2023-04-16T05:49:02;5.83;;;2.50;;
69534;SDS011;56754;51.568;5.048;2023-04-16T05:51:28;6.80;;;2.23;;
69534;SDS011;56754;51.568;5.048;2023-04-16T05:53:53;7.90;;;2.17;;
69534;SDS011;56754;51.568;5.048;2023-04-16T05:56:18;7.07;;;2.47;;
69534;SDS011;56754;51.568;5.048;2023-04-16T05:58:44;5.33;;;2.13;;
69534;SDS011;56754;51.568;5.048;2023-04-16T06:01:09;6.57;;;2.10;;
69534;SDS011;56754;51.568;5.048;2023-04-16T06:03:35;9.00;;;2.50;;
69534;SDS011;56754;51.568;5.048;2023-04-16T06:06:00;7.67;;;2.50;;
69534;SDS011;56754;51.568;5.048;2023-04-16T06:08:26;6.47;;;2.10;;
69534;SDS011;56754;51.568;5.048;2023-04-16T06:10:51;7.83;;;2.37;;
69534;SDS011;56754;51.568;5.048;2023-04-16T06:13:17;6.65;;;2.60;;
69534;SDS011;56754;51.568;5.048;2023-04-16T06:15:42;6.10;;;2.40;;
69534;SDS011;56754;51.568;5.048;2023-04-16T06:18:07;7.93;;;2.30;;
69534;SDS011;56754;51.568;5.048;2023-04-16T06:20:33;8.13;;;2.80;;
69534;SDS011;56754;51.568;5.048;2023-04-16T06:22:58;8.93;;;2.70;;
69534;SDS011;56754;51.568;5.048;2023-04-16T06:25:23;7.90;;;2.60;;
69534;SDS011;56754;51.568;5.048;2023-04-16T06:27:49;7.05;;;2.53;;
69534;SDS011;56754;51.568;5.048;2023-04-16T06:30:14;7.87;;;3.00;;
69534;SDS011;56754;51.568;5.048;2023-04-16T06:32:43;8.67;;;3.10;;
69534;SDS011;56754;51.568;5.048;2023-04-16T06:35:08;8.70;;;2.35;;
69534;SDS011;56754;51.568;5.048;2023-04-16T06:37:34;10.03;;;2.90;;
69534;SDS011;56754;51.568;5.048;2023-04-16T06:39:59;7.47;;;2.65;;
69534;SDS011;56754;51.568;5.048;2023-04-16T06:42:25;6.77;;;2.47;;
69534;SDS011;56754;51.568;5.048;2023-04-16T06:44:50;7.50;;;2.63;;
69534;SDS011;56754;51.568;5.048;2023-04-16T06:47:15;6.63;;;2.53;;
69534;SDS011;56754;51.568;5.048;2023-04-16T06:49:41;6.70;;;2.23;;
69534;SDS011;56754;51.568;5.048;2023-04-16T06:52:06;7.70;;;2.50;;
69534;SDS011;56754;51.568;5.048;2023-04-16T06:54:31;8.30;;;2.83;;
69534;SDS011;56754;51.568;5.048;2023-04-16T06:56:57;8.67;;;2.40;;
69534;SDS011;56754;51.568;5.048;2023-04-16T06:59:22;7.87;;;2.60;;
69534;SDS011;56754;51.568;5.048;2023-04-16T07:01:47;7.67;;;2.57;;
69534;SDS011;56754;51.568;5.048;2023-04-16T07:04:13;7.23;;;2.47;;
69534;SDS011;56754;51.568;5.048;2023-04-16T07:06:38;7.53;;;2.70;;
69534;SDS011;56754;51.568;5.048;2023-04-16T07:09:03;8.87;;;2.50;;
69534;SDS011;56754;51.568;5.048;2023-04-16T07:11:29;7.00;;;2.50;;
69534;SDS011;56754;51.568;5.048;2023-04-16T07:13:54;8.53;;;2.47;;
69534;SDS011;56754;51.568;5.048;2023-04-16T07:16:19;8.80;;;2.50;;
69534;SDS011;56754;51.568;5.048;2023-04-16T07:18:45;7.03;;;2.43;;
69534;SDS011;56754;51.568;5.048;2023-04-16T07:21:10;7.53;;;2.45;;
69534;SDS011;56754;51.568;5.048;2023-04-16T07:23:35;6.93;;;2.40;;
69534;SDS011;56754;51.568;5.048;2023-04-16T07:26:01;6.90;;;2.10;;
69534;SDS011;56754;51.568;5.048;2023-04-16T07:28:26;8.27;;;2.77;;
69534;SDS011;56754;51.568;5.048;2023-04-16T07:30:51;6.90;;;2.50;;
69534;SDS011;56754;51.568;5.048;2023-04-16T07:33:17;7.60;;;2.43;;
69534;SDS011;56754;51.568;5.048;2023-04-16T07:35:42;8.33;;;2.70;;
69534;SDS011;56754;51.568;5.048;2023-04-16T07:38:07;8.53;;;2.97;;
69534;SDS011;56754;51.568;5.048;2023-04-16T07:40:32;8.03;;;2.77;;
69534;SDS011;56754;51.568;5.048;2023-04-16T07:42:58;10.18;;;3.00;;
69534;SDS011;56754;51.568;5.048;2023-04-16T07:45:23;8.63;;;2.60;;
69534;SDS011;56754;51.568;5.048;2023-04-16T07:47:48;8.13;;;2.87;;
69534;SDS011;56754;51.568;5.048;2023-04-16T07:50:14;11.27;;;3.27;;
69534;SDS011;56754;51.568;5.048;2023-04-16T07:52:39;10.23;;;3.07;;
69534;SDS011;56754;51.568;5.048;2023-04-16T07:55:05;8.67;;;3.23;;
69534;SDS011;56754;51.568;5.048;2023-04-16T07:57:30;10.93;;;2.80;;
69534;SDS011;56754;51.568;5.048;2023-04-16T07:59:56;11.93;;;3.10;;
69534;SDS011;56754;51.568;5.048;2023-04-16T08:02:21;9.40;;;3.27;;
69534;SDS011;56754;51.568;5.048;2023-04-16T08:04:46;9.23;;;3.10;;
69534;SDS011;56754;51.568;5.048;2023-04-16T08:07:12;8.07;;;2.70;;
69534;SDS011;56754;51.568;5.048;2023-04-16T08:09:45;9.20;;;2.90;;
69534;SDS011;56754;51.568;5.048;2023-04-16T08:12:11;10.07;;;3.53;;
69534;SDS011;56754;51.568;5.048;2023-04-16T08:14:37;7.90;;;2.87;;
69534;SDS011;56754;51.568;5.048;2023-04-16T08:17:02;11.57;;;3.10;;
69534;SDS011;56754;51.568;5.048;2023-04-16T08:19:27;10.33;;;3.03;;
69534;SDS011;56754;51.568;5.048;2023-04-16T08:21:53;11.80;;;3.40;;
69534;SDS011;56754;51.568;5.048;2023-04-16T08:24:18;11.93;;;3.53;;
69534;SDS011;56754;51.568;5.048;2023-04-16T08:26:43;10.50;;;3.25;;
69534;SDS011;56754;51.568;5.048;2023-04-16T08:29:09;9.87;;;3.33;;
69534;SDS011;56754;51.568;5.048;2023-04-16T08:31:34;9.73;;;3.27;;
69534;SDS011;56754;51.568;5.048;2023-04-16T08:33:59;9.60;;;3.43;;
69534;SDS011;56754;51.568;5.048;2023-04-16T08:36:25;9.80;;;3.00;;
69534;SDS011;56754;51.568;5.048;2023-04-16T08:38:50;9.83;;;3.53;;
69534;SDS011;56754;51.568;5.048;2023-04-16T08:41:15;10.30;;;3.50;;
69534;SDS011;56754;51.568;5.048;2023-04-16T08:43:44;10.18;;;3.38;;
69534;SDS011;56754;51.568;5.048;2023-04-16T08:46:12;7.70;;;3.33;;
69534;SDS011;56754;51.568;5.048;2023-04-16T08:48:40;10.80;;;3.63;;
69534;SDS011;56754;51.568;5.048;2023-04-16T08:51:07;8.75;;;3.35;;
69534;SDS011;56754;51.568;5.048;2023-04-16T08:53:35;8.65;;;3.33;;
69534;SDS011;56754;51.568;5.048;2023-04-16T08:56:16;9.13;;;3.73;;
69534;SDS011;56754;51.568;5.048;2023-04-16T08:58:45;11.57;;;3.78;;
69534;SDS011;56754;51.568;5.048;2023-04-16T09:01:12;9.57;;;4.03;;
69534;SDS011;56754;51.568;5.048;2023-04-16T09:03:39;8.30;;;3.17;;
69534;SDS011;56754;51.568;5.048;2023-04-16T09:06:05;8.73;;;3.42;;
69534;SDS011;56754;51.568;5.048;2023-04-16T09:08:31;10.23;;;3.37;;
69534;SDS011;56754;51.568;5.048;2023-04-16T09:10:58;10.68;;;3.95;;
69534;SDS011;56754;51.568;5.048;2023-04-16T09:13:24;9.30;;;4.00;;
69534;SDS011;56754;51.568;5.048;2023-04-16T09:15:52;9.77;;;3.92;;
69534;SDS011;56754;51.568;5.048;2023-04-16T09:18:18;8.80;;;3.40;;
69534;SDS011;56754;51.568;5.048;2023-04-16T09:20:44;11.50;;;3.97;;
69534;SDS011;56754;51.568;5.048;2023-04-16T09:23:09;9.83;;;3.50;;
69534;SDS011;56754;51.568;5.048;2023-04-16T09:25:35;9.95;;;3.40;;
69534;SDS011;56754;51.568;5.048;2023-04-16T09:28:00;9.40;;;3.40;;
69534;SDS011;56754;51.568;5.048;2023-04-16T09:30:26;11.23;;;4.30;;
69534;SDS011;56754;51.568;5.048;2023-04-16T09:32:52;8.77;;;4.22;;
69534;SDS011;56754;51.568;5.048;2023-04-16T09:35:44;11.98;;;4.20;;
69534;SDS011;56754;51.568;5.048;2023-04-16T09:38:13;11.43;;;3.90;;
69534;SDS011;56754;51.568;5.048;2023-04-16T09:40:39;9.68;;;4.15;;
69534;SDS011;56754;51.568;5.048;2023-04-16T09:43:14;10.97;;;4.23;;
69534;SDS011;56754;51.568;5.048;2023-04-16T09:48:13;10.10;;;4.38;;
69534;SDS011;56754;51.568;5.048;2023-04-16T09:50:39;9.87;;;4.53;;
69534;SDS011;56754;51.568;5.048;2023-04-16T09:53:14;10.27;;;4.32;;
69534;SDS011;56754;51.568;5.048;2023-04-16T09:55:48;10.43;;;4.10;;
69534;SDS011;56754;51.568;5.048;2023-04-16T09:58:16;10.00;;;4.03;;
69534;SDS011;56754;51.568;5.048;2023-04-16T10:00:43;10.30;;;3.85;;
69534;SDS011;56754;51.568;5.048;2023-04-16T10:03:08;11.60;;;4.43;;
69534;SDS011;56754;51.568;5.048;2023-04-16T10:05:33;10.93;;;4.60;;
69534;SDS011;56754;51.568;5.048;2023-04-16T10:07:59;9.67;;;3.97;;
69534;SDS011;56754;51.568;5.048;2023-04-16T10:10:24;9.65;;;4.72;;
69534;SDS011;56754;51.568;5.048;2023-04-16T10:12:50;11.67;;;4.10;;
69534;SDS011;56754;51.568;5.048;2023-04-16T10:15:16;11.10;;;4.07;;
69534;SDS011;56754;51.568;5.048;2023-04-16T10:17:41;10.80;;;4.60;;
69534;SDS011;56754;51.568;5.048;2023-04-16T10:20:07;10.43;;;4.28;;
69534;SDS011;56754;51.568;5.048;2023-04-16T10:22:33;11.17;;;4.37;;
69534;SDS011;56754;51.568;5.048;2023-04-16T10:24:58;8.35;;;3.83;;
69534;SDS011;56754;51.568;5.048;2023-04-16T10:27:24;10.17;;;4.30;;
69534;SDS011;56754;51.568;5.048;2023-04-16T10:29:51;9.30;;;4.13;;
69534;SDS011;56754;51.568;5.048;2023-04-16T10:32:16;9.77;;;4.23;;
69534;SDS011;56754;51.568;5.048;2023-04-16T10:34:43;11.38;;;4.40;;
69534;SDS011;56754;51.568;5.048;2023-04-16T10:37:08;8.33;;;4.13;;
69534;SDS011;56754;51.568;5.048;2023-04-16T10:39:34;12.57;;;4.27;;
69534;SDS011;56754;51.568;5.048;2023-04-16T10:42:09;8.70;;;4.32;;
69534;SDS011;56754;51.568;5.048;2023-04-16T10:44:36;10.40;;;4.50;;
69534;SDS011;56754;51.568;5.048;2023-04-16T10:47:02;11.03;;;4.40;;
69534;SDS011;56754;51.568;5.048;2023-04-16T10:49:33;9.68;;;4.55;;
69534;SDS011;56754;51.568;5.048;2023-04-16T10:52:00;9.60;;;4.18;;
69534;SDS011;56754;51.568;5.048;2023-04-16T10:54:36;9.70;;;4.40;;
69534;SDS011;56754;51.568;5.048;2023-04-16T10:57:02;12.68;;;5.07;;
69534;SDS011;56754;51.568;5.048;2023-04-16T10:59:29;10.03;;;4.57;;
69534;SDS011;56754;51.568;5.048;2023-04-16T11:01:57;10.50;;;4.43;;
69534;SDS011;56754;51.568;5.048;2023-04-16T11:09:55;13.73;;;5.10;;
69534;SDS011;56754;51.568;5.048;2023-04-16T11:14:58;11.53;;;4.80;;
69534;SDS011;56754;51.568;5.048;2023-04-16T11:17:27;9.95;;;4.88;;
69534;SDS011;56754;51.568;5.048;2023-04-16T11:19:54;10.82;;;5.07;;
69534;SDS011;56754;51.568;5.048;2023-04-16T11:22:20;11.33;;;5.03;;
69534;SDS011;56754;51.568;5.048;2023-04-16T11:24:46;13.38;;;5.63;;
69534;SDS011;56754;51.568;5.048;2023-04-16T11:27:12;10.43;;;5.13;;
69534;SDS011;56754;51.568;5.048;2023-04-16T11:29:38;12.77;;;5.40;;
69534;SDS011;56754;51.568;5.048;2023-04-16T11:32:04;11.55;;;5.20;;
69534;SDS011;56754;51.568;5.048;2023-04-16T11:34:29;10.13;;;4.77;;
69534;SDS011;56754;51.568;5.048;2023-04-16T11:36:55;10.87;;;5.80;;
69534;SDS011;56754;51.568;5.048;2023-04-16T11:39:21;12.03;;;5.70;;
69534;SDS011;56754;51.568;5.048;2023-04-16T11:41:47;12.27;;;5.13;;
69534;SDS011;56754;51.568;5.048;2023-04-16T11:44:21;12.48;;;5.05;;
69534;SDS011;56754;51.568;5.048;2023-04-16T11:46:51;11.35;;;5.55;;
69534;SDS011;56754;51.568;5.048;2023-04-16T11:49:30;12.60;;;5.43;;
69534;SDS011;56754;51.568;5.048;2023-04-16T11:51:56;14.00;;;5.43;;
69534;SDS011;56754;51.568;5.048;2023-04-16T11:54:22;12.27;;;5.35;;
69534;SDS011;56754;51.568;5.048;2023-04-16T11:56:49;13.07;;;5.63;;
69534;SDS011;56754;51.568;5.048;2023-04-16T12:01:46;11.70;;;5.75;;
69534;SDS011;56754;51.568;5.048;2023-04-16T12:04:14;11.60;;;5.30;;
69534;SDS011;56754;51.568;5.048;2023-04-16T12:07:03;13.93;;;6.05;;
69534;SDS011;56754;51.568;5.048;2023-04-16T12:09:36;13.05;;;5.55;;
69534;SDS011;56754;51.568;5.048;2023-04-16T12:12:02;14.07;;;6.18;;
69534;SDS011;56754;51.568;5.048;2023-04-16T12:14:28;11.70;;;5.57;;
69534;SDS011;56754;51.568;5.048;2023-04-16T12:16:54;14.93;;;6.80;;
69534;SDS011;56754;51.568;5.048;2023-04-16T12:19:20;13.15;;;5.78;;
69534;SDS011;56754;51.568;5.048;2023-04-16T12:21:46;13.77;;;6.00;;
69534;SDS011;56754;51.568;5.048;2023-04-16T12:24:14;13.82;;;6.68;;
69534;SDS011;56754;51.568;5.048;2023-04-16T12:26:41;15.15;;;6.65;;
69534;SDS011;56754;51.568;5.048;2023-04-16T12:31:49;12.90;;;6.17;;
69534;SDS011;56754;51.568;5.048;2023-04-16T12:34:16;13.27;;;6.15;;
69534;SDS011;56754;51.568;5.048;2023-04-16T12:36:42;15.70;;;6.65;;
69534;SDS011;56754;51.568;5.048;2023-04-16T12:39:09;12.63;;;6.78;;
69534;SDS011;56754;51.568;5.048;2023-04-16T12:41:35;13.20;;;6.40;;
69534;SDS011;56754;51.568;5.048;2023-04-16T12:44:02;14.37;;;6.70;;
69534;SDS011;56754;51.568;5.048;2023-04-16T12:46:29;14.35;;;6.95;;
69534;SDS011;56754;51.568;5.048;2023-04-16T12:48:54;13.07;;;6.60;;
69534;SDS011;56754;51.568;5.048;2023-04-16T12:51:19;14.20;;;6.53;;
69534;SDS011;56754;51.568;5.048;2023-04-16T12:53:44;13.73;;;6.20;;
69534;SDS011;56754;51.568;5.048;2023-04-16T12:56:10;13.00;;;6.50;;
69534;SDS011;56754;51.568;5.048;2023-04-16T12:58:35;13.80;;;6.10;;
69534;SDS011;56754;51.568;5.048;2023-04-16T13:01:00;14.63;;;6.23;;
69534;SDS011;56754;51.568;5.048;2023-04-16T13:03:26;14.93;;;6.73;;
69534;SDS011;56754;51.568;5.048;2023-04-16T13:05:51;13.83;;;6.73;;
69534;SDS011;56754;51.568;5.048;2023-04-16T13:08:16;12.20;;;5.87;;
69534;SDS011;56754;51.568;5.048;2023-04-16T13:10:42;13.47;;;6.00;;
69534;SDS011;56754;51.568;5.048;2023-04-16T13:13:07;16.45;;;6.50;;
69534;SDS011;56754;51.568;5.048;2023-04-16T13:15:32;12.40;;;6.13;;
69534;SDS011;56754;51.568;5.048;2023-04-16T13:17:58;12.43;;;6.27;;
69534;SDS011;56754;51.568;5.048;2023-04-16T13:20:23;13.10;;;5.93;;
69534;SDS011;56754;51.568;5.048;2023-04-16T13:22:48;13.07;;;6.03;;
69534;SDS011;56754;51.568;5.048;2023-04-16T13:25:14;12.20;;;5.47;;
69534;SDS011;56754;51.568;5.048;2023-04-16T13:27:39;12.57;;;5.60;;
69534;SDS011;56754;51.568;5.048;2023-04-16T13:30:04;11.73;;;6.20;;
69534;SDS011;56754;51.568;5.048;2023-04-16T13:32:30;14.73;;;6.57;;
69534;SDS011;56754;51.568;5.048;2023-04-16T13:34:55;12.87;;;6.60;;
69534;SDS011;56754;51.568;5.048;2023-04-16T13:37:21;14.02;;;6.57;;
69534;SDS011;56754;51.568;5.048;2023-04-16T13:39:46;13.80;;;6.57;;
69534;SDS011;56754;51.568;5.048;2023-04-16T13:42:11;12.50;;;6.47;;
69534;SDS011;56754;51.568;5.048;2023-04-16T13:44:37;13.00;;;6.70;;
69534;SDS011;56754;51.568;5.048;2023-04-16T13:47:02;15.83;;;6.47;;
69534;SDS011;56754;51.568;5.048;2023-04-16T13:49:27;13.37;;;6.03;;
69534;SDS011;56754;51.568;5.048;2023-04-16T13:51:52;13.20;;;7.00;;
69534;SDS011;56754;51.568;5.048;2023-04-16T13:54:18;13.17;;;6.60;;
69534;SDS011;56754;51.568;5.048;2023-04-16T13:56:43;14.63;;;7.00;;
69534;SDS011;56754;51.568;5.048;2023-04-16T13:59:08;13.90;;;6.85;;
69534;SDS011;56754;51.568;5.048;2023-04-16T14:01:34;14.80;;;6.93;;
69534;SDS011;56754;51.568;5.048;2023-04-16T14:03:59;13.43;;;6.70;;
69534;SDS011;56754;51.568;5.048;2023-04-16T14:06:25;13.35;;;7.10;;
69534;SDS011;56754;51.568;5.048;2023-04-16T14:08:50;13.90;;;7.00;;
69534;SDS011;56754;51.568;5.048;2023-04-16T14:11:16;16.43;;;7.80;;
69534;SDS011;56754;51.568;5.048;2023-04-16T14:13:41;14.60;;;7.27;;
69534;SDS011;56754;51.568;5.048;2023-04-16T14:16:06;14.73;;;6.70;;
69534;SDS011;56754;51.568;5.048;2023-04-16T14:18:32;14.65;;;7.07;;
69534;SDS011;56754;51.568;5.048;2023-04-16T14:20:57;14.60;;;6.97;;
69534;SDS011;56754;51.568;5.048;2023-04-16T14:23:22;14.50;;;7.20;;
69534;SDS011;56754;51.568;5.048;2023-04-16T14:25:48;12.97;;;6.43;;
69534;SDS011;56754;51.568;5.048;2023-04-16T14:28:13;13.77;;;7.40;;
69534;SDS011;56754;51.568;5.048;2023-04-16T14:30:38;13.70;;;7.20;;
69534;SDS011;56754;51.568;5.048;2023-04-16T14:33:04;14.87;;;7.13;;
69534;SDS011;56754;51.568;5.048;2023-04-16T14:35:30;10.73;;;6.38;;
69534;SDS011;56754;51.568;5.048;2023-04-16T14:37:55;14.47;;;7.30;;
69534;SDS011;56754;51.568;5.048;2023-04-16T14:40:20;13.53;;;6.93;;
69534;SDS011;56754;51.568;5.048;2023-04-16T14:42:46;13.10;;;6.88;;
69534;SDS011;56754;51.568;5.048;2023-04-16T14:45:11;13.57;;;6.40;;
69534;SDS011;56754;51.568;5.048;2023-04-16T14:47:36;13.97;;;7.17;;
69534;SDS011;56754;51.568;5.048;2023-04-16T14:50:02;11.50;;;6.57;;
69534;SDS011;56754;51.568;5.048;2023-04-16T14:52:29;12.93;;;6.63;;